createdAt,value
2019-02-23T00:18:26.212Z,99.90
2019-02-23T00:20:55.944Z,99.90
2019-02-23T00:23:25.748Z,99.90
2019-02-23T00:25:55.393Z,99.90
2019-02-23T00:28:25.075Z,99.90
2019-02-23T00:30:54.834Z,99.90
2019-02-23T00:33:24.492Z,99.90
2019-02-23T00:35:54.333Z,99.90
2019-02-23T00:38:24.027Z,99.90
2019-02-23T00:40:53.780Z,99.90
2019-02-23T00:43:23.381Z,99.90
2019-02-23T00:45:53.012Z,99.90
2019-02-23T00:48:22.881Z,99.90
2019-02-23T00:50:54.400Z,99.90
2019-02-23T00:53:24.039Z,99.90
2019-02-23T00:55:53.772Z,99.90
2019-02-23T00:58:23.461Z,99.90
2019-02-23T01:00:53.131Z,99.90
2019-02-23T01:03:22.842Z,99.90
2019-02-23T01:05:52.680Z,99.90
2019-02-23T01:08:22.458Z,99.90
2019-02-23T01:10:58.258Z,99.90
2019-02-23T01:13:23.773Z,99.90
2019-02-23T01:15:53.559Z,99.90
2019-02-23T01:18:23.260Z,99.90
2019-02-23T01:20:52.995Z,99.90
2019-02-23T01:23:22.901Z,99.90
2019-02-23T01:25:52.663Z,99.90
2019-02-23T01:28:22.392Z,99.90
2019-02-23T01:30:52.059Z,99.90
2019-02-23T01:33:21.778Z,99.90
2019-02-23T01:35:51.517Z,99.90
2019-02-23T01:38:21.187Z,99.90
2019-02-23T01:40:50.902Z,99.90
2019-02-23T01:43:20.501Z,99.90
2019-02-23T01:45:50.218Z,99.90
2019-02-23T01:48:20.019Z,99.90
2019-02-23T01:50:49.755Z,99.90
2019-02-23T01:53:19.565Z,99.90
2019-02-23T01:55:49.226Z,99.90
2019-02-23T01:58:18.919Z,99.90
2019-02-23T02:00:48.851Z,99.90
2019-02-23T02:03:18.626Z,99.90
2019-02-23T02:05:48.552Z,99.90
2019-02-23T02:08:18.365Z,99.90
2019-02-23T02:10:48.129Z,99.90
2019-02-23T02:13:17.805Z,99.90
2019-02-23T02:15:47.449Z,99.90
2019-02-23T02:18:17.123Z,99.90
2019-02-23T02:20:46.828Z,99.90
2019-02-23T02:23:16.475Z,99.90
2019-02-23T02:25:46.258Z,99.90
2019-02-23T02:28:15.911Z,99.90
2019-02-23T02:30:45.579Z,99.90
2019-02-23T02:33:15.331Z,99.90
2019-02-23T02:35:44.988Z,99.90
2019-02-23T02:38:14.662Z,99.90
2019-02-23T02:40:44.525Z,99.90
2019-02-23T02:43:14.202Z,99.90
2019-02-23T02:45:43.882Z,99.90
2019-02-23T02:48:13.806Z,99.90
2019-02-23T02:50:43.608Z,99.90
2019-02-23T02:53:13.249Z,99.90
2019-02-23T02:55:42.984Z,99.90
2019-02-23T02:58:12.805Z,99.90
2019-02-23T03:00:42.545Z,99.90
2019-02-23T03:03:12.354Z,99.90
2019-02-23T03:05:44.537Z,99.90
2019-02-23T03:08:14.294Z,99.90
2019-02-23T03:10:44.063Z,99.90
2019-02-23T03:13:13.780Z,99.90
2019-02-23T03:15:43.522Z,99.90
2019-02-23T03:18:13.231Z,99.90
2019-02-23T03:20:43.070Z,99.90
2019-02-23T03:23:12.738Z,99.90
2019-02-23T03:25:42.460Z,99.90
2019-02-23T03:28:12.170Z,99.90
2019-02-23T03:30:41.871Z,99.90
2019-02-23T03:33:11.609Z,99.90
2019-02-23T03:35:41.271Z,99.90
2019-02-23T03:38:11.122Z,99.90
2019-02-23T03:40:40.767Z,99.90
2019-02-23T03:43:10.488Z,99.90
2019-02-23T03:45:40.139Z,99.90
2019-02-23T03:48:10.023Z,99.90
2019-02-23T03:50:48.686Z,99.90
2019-02-23T03:53:10.999Z,99.90
2019-02-23T03:55:40.810Z,99.90
2019-02-23T03:58:10.593Z,99.90
2019-02-23T04:00:40.346Z,99.90
2019-02-23T04:03:10.009Z,99.90
2019-02-23T04:05:39.676Z,99.90
2019-02-23T04:08:09.459Z,99.90
2019-02-23T04:10:39.199Z,99.90
2019-02-23T04:13:09.154Z,99.90
2019-02-23T04:15:38.995Z,99.90
2019-02-23T04:18:08.658Z,99.90
2019-02-23T04:20:38.311Z,99.90
2019-02-23T04:23:08.158Z,99.90
2019-02-23T04:25:37.778Z,99.90
2019-02-23T04:28:07.410Z,99.90
2019-02-23T04:30:37.156Z,99.90
2019-02-23T04:33:06.904Z,99.90
2019-02-23T04:35:36.800Z,99.90
2019-02-23T04:38:06.437Z,99.90
2019-02-23T04:40:36.105Z,99.90
2019-02-23T04:43:05.957Z,99.90
2019-02-23T04:45:35.703Z,99.90
2019-02-23T04:48:05.349Z,99.90
2019-02-23T04:50:35.065Z,99.90
2019-02-23T04:53:04.727Z,99.90
2019-02-23T04:55:34.314Z,99.90
2019-02-23T04:58:04.165Z,99.90
2019-02-23T05:00:33.789Z,99.90
2019-02-23T05:03:03.462Z,99.90
2019-02-23T05:05:33.123Z,99.90
2019-02-23T05:08:03.039Z,99.90
2019-02-23T05:10:32.815Z,99.90
2019-02-23T05:13:02.499Z,99.90
2019-02-23T05:15:32.306Z,99.90
2019-02-23T05:18:02.092Z,99.90
2019-02-23T05:20:31.814Z,99.90
2019-02-23T05:23:01.594Z,99.90
2019-02-23T05:25:31.318Z,99.90
2019-02-23T05:28:00.973Z,99.90
2019-02-23T05:30:30.640Z,99.90
2019-02-23T05:33:00.306Z,99.90
2019-02-23T05:35:30.114Z,99.90
2019-02-23T05:37:59.866Z,99.90
2019-02-23T05:40:29.567Z,99.90
2019-02-23T05:43:01.204Z,99.90
2019-02-23T05:45:30.619Z,99.90
2019-02-23T05:48:00.462Z,99.90
2019-02-23T05:50:30.346Z,99.90
2019-02-23T05:53:00.165Z,99.90
2019-02-23T05:55:30.021Z,99.90
2019-02-23T05:57:59.809Z,99.90
2019-02-23T06:00:29.558Z,99.90
2019-02-23T06:02:59.235Z,99.90
2019-02-23T06:05:28.957Z,99.90
2019-02-23T06:07:58.662Z,99.90
2019-02-23T06:10:28.407Z,99.90
2019-02-23T06:12:58.050Z,99.90
2019-02-23T06:15:27.755Z,99.90
2019-02-23T06:17:57.363Z,99.90
2019-02-23T06:20:27.017Z,99.90
2019-02-23T06:22:56.611Z,99.90
2019-02-23T06:25:26.364Z,99.90
2019-02-23T06:27:56.074Z,99.90
2019-02-23T06:30:25.757Z,99.90
2019-02-23T06:32:55.435Z,99.90
2019-02-23T06:35:25.146Z,99.90
2019-02-23T06:37:54.877Z,99.90
2019-02-23T06:40:24.524Z,99.90
2019-02-23T06:42:54.231Z,99.90
2019-02-23T06:45:23.831Z,99.90
2019-02-23T06:47:53.498Z,99.90
2019-02-23T06:50:23.155Z,99.90
2019-02-23T06:52:52.864Z,99.90
2019-02-23T06:55:22.531Z,99.90
2019-02-23T06:57:52.196Z,99.90
2019-02-23T07:00:22.080Z,99.90
2019-02-23T07:02:52.084Z,99.90
2019-02-23T07:05:34.192Z,99.90
2019-02-23T07:08:08.378Z,99.90
2019-02-23T07:10:38.160Z,99.90
2019-02-23T07:13:07.804Z,99.90
2019-02-23T07:15:37.478Z,99.90
2019-02-23T07:18:07.118Z,99.90
2019-02-23T07:20:44.223Z,99.90
2019-02-23T07:23:08.310Z,99.90
2019-02-23T07:25:38.051Z,99.90
2019-02-23T07:28:07.892Z,99.90
2019-02-23T07:30:37.642Z,99.90
2019-02-23T07:33:07.376Z,99.90
2019-02-23T07:35:37.105Z,99.90
2019-02-23T07:38:07.009Z,99.90
2019-02-23T07:40:36.898Z,99.90
2019-02-23T07:43:06.720Z,99.90
2019-02-23T07:45:36.318Z,99.90
2019-02-23T07:48:06.097Z,99.90
2019-02-23T07:50:35.771Z,99.90
2019-02-23T07:53:05.432Z,99.90
2019-02-23T07:55:35.341Z,99.90
2019-02-23T07:58:05.220Z,99.90
2019-02-23T08:00:34.982Z,99.90
2019-02-23T08:03:04.935Z,99.90
2019-02-23T08:05:34.547Z,99.90
2019-02-23T08:08:04.364Z,99.90
2019-02-23T08:10:34.157Z,99.90
2019-02-23T08:13:03.757Z,99.90
2019-02-23T08:15:33.461Z,99.90
2019-02-23T08:18:03.170Z,99.90
2019-02-23T08:20:32.898Z,99.90
2019-02-23T08:23:02.580Z,99.90
2019-02-23T08:25:32.222Z,99.90
2019-02-23T08:28:02.108Z,99.90
2019-02-23T08:30:31.800Z,99.90
2019-02-23T08:33:01.474Z,99.50
2019-02-23T08:35:31.120Z,96.90
2019-02-23T08:38:00.882Z,92.90
2019-02-23T08:40:30.523Z,83.50
2019-02-23T08:43:00.208Z,85.10
2019-02-23T08:45:29.888Z,78.10
2019-02-23T08:47:59.482Z,71.80
2019-02-23T08:50:29.181Z,69.20
2019-02-23T08:52:58.925Z,73.20
2019-02-23T08:55:28.653Z,64.20
2019-02-23T08:57:58.459Z,60.00
2019-02-23T09:00:28.229Z,58.40
2019-02-23T09:02:58.041Z,56.80
2019-02-23T09:05:27.826Z,57.30
2019-02-23T09:07:57.610Z,56.60
2019-02-23T09:10:27.279Z,57.70
2019-02-23T09:12:56.957Z,55.20
2019-02-23T09:15:26.612Z,54.90
2019-02-23T09:17:56.247Z,57.40
2019-02-23T09:20:29.176Z,52.90
2019-02-23T09:23:00.341Z,50.00
2019-02-23T09:25:28.663Z,52.20
2019-02-23T09:27:58.382Z,49.20
2019-02-23T09:30:28.076Z,48.90
2019-02-23T09:32:57.728Z,48.30
2019-02-23T09:35:28.626Z,49.20
2019-02-23T09:37:58.281Z,46.80
2019-02-23T09:40:34.368Z,47.70
2019-02-23T09:43:04.181Z,48.90
2019-02-23T09:45:33.890Z,49.30
2019-02-23T09:48:03.574Z,51.10
2019-02-23T09:50:33.670Z,50.70
2019-02-23T09:53:10.692Z,52.70
2019-02-23T09:55:34.876Z,53.20
2019-02-23T09:58:04.641Z,52.20
2019-02-23T10:00:34.342Z,51.10
2019-02-23T10:03:06.090Z,51.70
2019-02-23T10:05:38.107Z,50.30
2019-02-23T10:08:07.343Z,51.30
2019-02-23T10:10:37.069Z,53.70
2019-02-23T10:13:06.660Z,54.40
2019-02-23T10:15:36.496Z,53.60
2019-02-23T10:18:06.176Z,53.50
2019-02-23T10:20:35.956Z,53.70
2019-02-23T10:23:05.621Z,53.40
2019-02-23T10:25:35.348Z,53.60
2019-02-23T10:28:05.148Z,56.10
2019-02-23T10:30:34.877Z,54.70
2019-02-23T10:33:04.564Z,54.80
2019-02-23T10:35:34.245Z,55.30
2019-02-23T10:38:03.877Z,54.70
2019-02-23T10:40:33.644Z,54.00
2019-02-23T10:43:03.360Z,53.60
2019-02-23T10:45:33.175Z,54.70
2019-02-23T10:48:02.908Z,51.70
2019-02-23T10:50:32.695Z,53.00
2019-02-23T10:53:02.410Z,52.90
2019-02-23T10:55:32.244Z,53.60
2019-02-23T10:58:02.139Z,54.80
2019-02-23T11:00:31.878Z,55.70
2019-02-23T11:03:01.746Z,56.30
2019-02-23T11:05:31.427Z,54.40
2019-02-23T11:08:01.135Z,55.10
2019-02-23T11:10:31.023Z,54.90
2019-02-23T11:13:00.704Z,54.90
2019-02-23T11:15:30.467Z,53.90
2019-02-23T11:18:00.151Z,54.10
2019-02-23T11:20:30.655Z,55.00
2019-02-23T11:23:02.624Z,55.40
2019-02-23T11:25:32.369Z,53.80
2019-02-23T11:28:02.136Z,53.90
2019-02-23T11:30:31.879Z,54.10
2019-02-23T11:33:02.660Z,55.00
2019-02-23T11:35:32.451Z,54.80
2019-02-23T11:38:02.220Z,55.80
2019-02-23T11:40:31.969Z,55.60
2019-02-23T11:43:01.799Z,55.70
2019-02-23T11:45:31.471Z,55.80
2019-02-23T11:48:01.199Z,55.00
2019-02-23T11:50:30.897Z,54.10
2019-02-23T11:53:00.924Z,53.70
2019-02-23T11:55:30.650Z,54.10
2019-02-23T11:58:00.317Z,53.00
2019-02-23T12:00:30.044Z,52.90
2019-02-23T12:03:00.043Z,53.00
2019-02-23T12:05:30.159Z,53.70
2019-02-23T12:07:59.877Z,52.80
2019-02-23T12:10:29.555Z,51.00
2019-02-23T12:12:59.219Z,51.70
2019-02-23T12:15:28.971Z,52.50
2019-02-23T12:17:58.639Z,52.40
2019-02-23T12:20:31.469Z,53.90
2019-02-23T12:23:01.807Z,52.60
2019-02-23T12:25:31.579Z,52.10
2019-02-23T12:28:01.294Z,50.00
2019-02-23T12:30:32.763Z,50.10
2019-02-23T12:33:02.642Z,50.90
2019-02-23T12:35:32.386Z,51.80
2019-02-23T12:38:02.141Z,51.70
2019-02-23T12:40:31.840Z,48.80
2019-02-23T12:43:01.507Z,48.40
2019-02-23T12:45:31.250Z,45.00
2019-02-23T12:48:01.019Z,46.30
2019-02-23T12:50:33.267Z,47.00
2019-02-23T12:53:02.326Z,45.00
2019-02-23T12:55:32.119Z,45.90
2019-02-23T12:58:01.891Z,45.90
2019-02-23T13:00:31.478Z,47.00
2019-02-23T13:03:01.154Z,46.50
2019-02-23T13:05:30.905Z,45.20
2019-02-23T13:08:00.741Z,44.40
2019-02-23T13:10:30.426Z,43.10
2019-02-23T13:13:20.574Z,43.90
2019-02-23T13:16:26.804Z,45.30
2019-02-23T13:19:37.264Z,45.40
2019-02-23T13:23:12.155Z,48.00
2019-02-23T13:26:04.605Z,49.00
2019-02-23T13:28:42.991Z,48.90
2019-02-23T13:31:43.593Z,48.80
2019-02-23T13:35:12.208Z,49.80
2019-02-23T13:38:17.843Z,49.10
2019-02-23T13:41:22.741Z,48.50
2019-02-23T13:44:36.866Z,47.60
2019-02-23T13:47:22.968Z,49.10
2019-02-23T13:50:37.796Z,48.40
2019-02-23T13:54:00.523Z,48.80
2019-02-23T13:57:08.614Z,49.00
2019-02-23T14:00:12.306Z,49.20
2019-02-23T14:02:57.559Z,49.00
2019-02-23T14:06:11.523Z,49.40
2019-02-23T14:09:33.862Z,50.20
2019-02-23T14:12:27.404Z,49.30
2019-02-23T14:15:41.321Z,49.20
2019-02-23T14:18:47.852Z,49.10
2019-02-23T14:21:50.811Z,50.20
2019-02-23T14:24:49.889Z,50.50
2019-02-23T14:27:42.017Z,51.40
2019-02-23T14:30:42.375Z,51.80
2019-02-23T14:33:55.724Z,52.10
2019-02-23T14:36:55.106Z,50.50
2019-02-23T14:39:48.344Z,50.50
2019-02-23T14:43:20.138Z,50.70
2019-02-23T14:46:23.663Z,51.20
2019-02-23T14:49:35.054Z,52.30
2019-02-23T14:52:49.728Z,53.40
2019-02-23T14:55:57.381Z,54.00
2019-02-23T14:59:01.792Z,54.30
2019-02-23T15:02:08.668Z,54.80
2019-02-23T15:05:08.452Z,55.90
2019-02-23T15:08:22.048Z,55.90
2019-02-23T15:11:20.127Z,56.40
2019-02-23T15:14:35.131Z,56.70
2019-02-23T15:17:46.064Z,57.00
2019-02-23T15:20:59.130Z,57.00
2019-02-23T15:24:30.915Z,57.40
2019-02-23T15:27:44.472Z,58.10
2019-02-23T15:30:42.947Z,59.10
2019-02-23T15:33:49.088Z,60.20
2019-02-23T15:36:43.377Z,60.90
2019-02-23T15:39:56.743Z,61.30
2019-02-23T15:43:05.715Z,62.70
2019-02-23T15:46:26.841Z,63.70
2019-02-23T15:49:27.946Z,66.20
2019-02-23T15:51:58.437Z,66.60
2019-02-23T15:54:29.229Z,68.10
2019-02-23T15:56:59.164Z,69.00
2019-02-23T15:59:29.255Z,70.70
2019-02-23T16:01:59.100Z,71.40
2019-02-23T16:04:28.867Z,72.30
2019-02-23T16:06:58.990Z,73.60
2019-02-23T16:09:29.058Z,75.10
2019-02-23T16:12:00.501Z,76.10
2019-02-23T16:14:30.346Z,77.10
2019-02-23T16:17:00.030Z,78.20
2019-02-23T16:19:29.748Z,80.90
2019-02-23T16:21:59.422Z,81.80
2019-02-23T16:24:29.184Z,82.60
2019-02-23T16:26:59.334Z,83.30
2019-02-23T16:29:29.111Z,84.20
2019-02-23T16:32:01.652Z,85.50
2019-02-23T16:34:31.363Z,86.40
2019-02-23T16:37:01.109Z,87.00
2019-02-23T16:39:30.813Z,87.80
2019-02-23T16:42:00.738Z,88.70
2019-02-23T16:44:30.529Z,90.00
2019-02-23T16:47:00.509Z,90.50
2019-02-23T16:49:30.145Z,91.10
2019-02-23T16:51:59.912Z,92.10
2019-02-23T16:54:30.219Z,93.00
2019-02-23T16:57:00.018Z,94.00
2019-02-23T16:59:30.097Z,95.40
2019-02-23T17:02:01.055Z,96.60
2019-02-23T17:04:31.054Z,97.80
2019-02-23T17:07:01.004Z,99.20
2019-02-23T17:09:30.995Z,99.90
2019-02-23T17:12:01.861Z,99.90
2019-02-23T17:14:31.974Z,99.90
2019-02-23T17:17:02.002Z,99.90
2019-02-23T17:19:31.819Z,99.90
2019-02-23T17:22:01.735Z,99.90
2019-02-23T17:24:31.423Z,99.90
2019-02-23T17:27:01.297Z,99.90
2019-02-23T17:29:30.957Z,99.90
2019-02-23T17:32:00.619Z,99.90
2019-02-23T17:34:30.300Z,99.90
2019-02-23T17:36:59.994Z,99.90
2019-02-23T17:39:30.037Z,99.90
2019-02-23T17:41:59.676Z,99.90
2019-02-23T17:44:29.383Z,99.90
2019-02-23T17:46:59.192Z,99.90
2019-02-23T17:49:28.961Z,99.90
2019-02-23T17:51:58.662Z,99.90
2019-02-23T17:54:28.424Z,99.90
2019-02-23T17:56:58.258Z,99.90
2019-02-23T17:59:28.034Z,99.90
2019-02-23T18:01:57.708Z,99.90
2019-02-23T18:04:27.386Z,99.90
2019-02-23T18:06:57.053Z,99.90
2019-02-23T18:09:28.591Z,99.90
2019-02-23T18:11:58.453Z,99.90
2019-02-23T18:14:30.445Z,99.90
2019-02-23T18:17:00.482Z,99.90
2019-02-23T18:19:30.185Z,99.90
2019-02-23T18:21:59.943Z,99.90
2019-02-23T18:24:30.012Z,99.90
2019-02-23T18:27:00.944Z,99.90
2019-02-23T18:29:30.656Z,99.90
2019-02-23T18:32:00.309Z,99.90
2019-02-23T18:34:31.693Z,99.90
2019-02-23T18:37:01.413Z,99.90
2019-02-23T18:39:31.106Z,99.90
2019-02-23T18:42:00.805Z,99.90
2019-02-23T18:44:30.431Z,99.90
2019-02-23T18:47:00.235Z,99.90
2019-02-23T18:49:31.252Z,99.90
2019-02-23T18:52:01.055Z,99.90
2019-02-23T18:54:47.393Z,99.90
2019-02-23T18:57:17.238Z,99.90
2019-02-23T18:59:47.179Z,99.90
2019-02-23T19:02:16.972Z,99.90
2019-02-23T19:04:46.776Z,99.90
2019-02-23T19:07:16.668Z,99.90
2019-02-23T19:09:46.511Z,99.90
2019-02-23T19:12:16.267Z,99.90
2019-02-23T19:14:45.918Z,99.90
2019-02-23T19:17:19.546Z,99.90
2019-02-23T19:19:49.655Z,99.90
2019-02-23T19:22:20.479Z,99.90
2019-02-23T19:24:53.045Z,99.90
2019-02-23T19:27:24.495Z,99.90
2019-02-23T19:29:54.221Z,99.90
2019-02-23T19:32:23.999Z,99.90
2019-02-23T19:34:54.065Z,99.90
2019-02-23T19:37:24.043Z,99.90
2019-02-23T19:39:53.750Z,99.90
2019-02-23T19:42:23.509Z,99.90
2019-02-23T19:44:54.462Z,99.90
2019-02-23T19:47:27.168Z,99.90
2019-02-23T19:50:03.436Z,99.90
2019-02-23T19:52:33.345Z,99.90
2019-02-23T19:55:03.535Z,99.90
2019-02-23T19:57:33.192Z,99.90
2019-02-23T20:00:02.836Z,99.90
2019-02-23T20:02:32.759Z,99.90
2019-02-23T20:05:04.353Z,99.90
2019-02-23T20:07:34.018Z,99.90
2019-02-23T20:10:05.361Z,99.90
2019-02-23T20:12:35.283Z,99.90
2019-02-23T20:15:04.985Z,99.90
2019-02-23T20:17:34.817Z,99.90
2019-02-23T20:20:04.602Z,99.90
2019-02-23T20:22:34.395Z,99.90
2019-02-23T20:25:05.165Z,99.90
2019-02-23T20:27:35.094Z,99.90
2019-02-23T20:30:04.963Z,99.90
2019-02-23T20:32:35.128Z,99.90
2019-02-23T20:35:04.935Z,99.90
2019-02-23T20:37:34.658Z,99.90
2019-02-23T20:40:07.072Z,99.90
2019-02-23T20:42:36.896Z,99.90
2019-02-23T20:45:06.872Z,99.90
2019-02-23T20:47:36.628Z,99.90
2019-02-23T20:50:07.492Z,99.90
2019-02-23T20:52:39.382Z,99.90
2019-02-23T20:55:09.340Z,99.90
2019-02-23T20:57:39.068Z,99.90
2019-02-23T21:00:09.577Z,99.90
2019-02-23T21:02:39.286Z,99.90
2019-02-23T21:05:09.627Z,99.90
2019-02-23T21:07:39.416Z,99.90
2019-02-23T21:10:10.067Z,99.90
2019-02-23T21:12:39.795Z,99.90
2019-02-23T21:15:09.895Z,99.90
2019-02-23T21:17:41.006Z,99.90
2019-02-23T21:20:11.143Z,99.90
2019-02-23T21:22:43.364Z,99.90
2019-02-23T21:25:13.746Z,99.90
2019-02-23T21:27:44.385Z,99.90
2019-02-23T21:30:14.460Z,99.90
2019-02-23T21:32:44.522Z,99.90
2019-02-23T21:35:15.479Z,99.90
2019-02-23T21:37:45.475Z,99.90
2019-02-23T21:40:15.136Z,99.90
2019-02-23T21:42:44.919Z,99.90
2019-02-23T21:45:14.698Z,99.90
2019-02-23T21:47:44.842Z,99.90
2019-02-23T21:50:16.800Z,99.90
2019-02-23T21:52:47.507Z,99.90
2019-02-23T21:55:17.310Z,99.90
2019-02-23T21:57:47.113Z,99.90
2019-02-23T22:00:16.890Z,99.90
2019-02-23T22:02:47.607Z,99.90
2019-02-23T22:05:17.390Z,99.90
2019-02-23T22:07:47.636Z,99.90
2019-02-23T22:10:18.769Z,99.90
2019-02-23T22:12:48.525Z,99.90
2019-02-23T22:15:18.309Z,99.90
2019-02-23T22:17:48.094Z,99.90
2019-02-23T22:20:17.902Z,99.90
2019-02-23T22:22:47.661Z,99.90
2019-02-23T22:25:17.398Z,99.90
2019-02-23T22:27:47.051Z,99.90
2019-02-23T22:30:16.871Z,99.90
2019-02-23T22:32:46.551Z,99.90
2019-02-23T22:35:16.269Z,99.90
2019-02-23T22:37:48.069Z,99.90
2019-02-23T22:40:17.724Z,99.90
2019-02-23T22:42:47.471Z,99.90
2019-02-23T22:45:17.265Z,99.90
2019-02-23T22:47:46.943Z,99.90
2019-02-23T22:50:16.678Z,99.90
2019-02-23T22:52:46.571Z,99.90
2019-02-23T22:55:16.265Z,99.90
2019-02-23T22:57:46.014Z,99.90
2019-02-23T23:00:18.052Z,99.90
2019-02-23T23:02:47.807Z,99.90
2019-02-23T23:05:17.522Z,99.90
2019-02-23T23:07:47.254Z,99.90
2019-02-23T23:10:17.115Z,99.90
2019-02-23T23:12:46.918Z,99.90
2019-02-23T23:15:16.694Z,99.90
2019-02-23T23:17:46.491Z,99.90
2019-02-23T23:20:16.220Z,99.90
2019-02-23T23:22:46.061Z,99.90
2019-02-23T23:25:15.800Z,99.90
2019-02-23T23:27:49.232Z,99.90
2019-02-23T23:30:16.807Z,99.90
2019-02-23T23:32:46.515Z,99.90
2019-02-23T23:35:18.735Z,99.90
2019-02-23T23:37:48.528Z,99.90
2019-02-23T23:40:18.274Z,99.90
2019-02-23T23:42:48.048Z,99.90
2019-02-23T23:45:17.674Z,99.90
2019-02-23T23:47:47.392Z,99.90
2019-02-23T23:50:17.355Z,99.90
2019-02-23T23:52:47.029Z,99.90
2019-02-23T23:55:16.707Z,99.90
2019-02-23T23:57:46.354Z,99.90
